sensor_id;sensor_type;location;lat;lon;timestamp;pressure;altitude;pressure_sealevel;temperature;humidity
75852;BME280;64500;52.632;20.656;2023-04-03T00:00:35;101112.33;;;-1.20;81.50
75852;BME280;64500;52.632;20.656;2023-04-03T00:03:16;101112.54;;;-1.24;80.83
75852;BME280;64500;52.632;20.656;2023-04-03T00:05:43;101113.36;;;-1.25;81.49
75852;BME280;64500;52.632;20.656;2023-04-03T00:08:10;101116.47;;;-1.30;80.80
75852;BME280;64500;52.632;20.656;2023-04-03T00:10:37;101117.90;;;-1.29;80.24
75852;BME280;64500;52.632;20.656;2023-04-03T00:13:05;101112.46;;;-1.36;80.87
75852;BME280;64500;52.632;20.656;2023-04-03T00:15:33;101109.77;;;-1.43;79.92
75852;BME280;64500;52.632;20.656;2023-04-03T00:18:01;101112.88;;;-1.43;80.26
75852;BME280;64500;52.632;20.656;2023-04-03T00:20:28;101109.08;;;-1.48;80.23
75852;BME280;64500;52.632;20.656;2023-04-03T00:22:55;101111.55;;;-1.56;80.44
75852;BME280;64500;52.632;20.656;2023-04-03T00:25:22;101110.61;;;-1.63;80.34
75852;BME280;64500;52.632;20.656;2023-04-03T00:27:49;101111.24;;;-1.65;80.23
75852;BME280;64500;52.632;20.656;2023-04-03T00:30:17;101108.50;;;-1.68;79.73
75852;BME280;64500;52.632;20.656;2023-04-03T00:32:45;101115.46;;;-1.73;79.80
75852;BME280;64500;52.632;20.656;2023-04-03T00:35:11;101113.29;;;-1.75;79.46
75852;BME280;64500;52.632;20.656;2023-04-03T00:37:44;101111.91;;;-1.79;79.88
75852;BME280;64500;52.632;20.656;2023-04-03T00:40:13;101117.55;;;-1.86;79.48
75852;BME280;64500;52.632;20.656;2023-04-03T00:42:41;101121.34;;;-1.91;79.75
75852;BME280;64500;52.632;20.656;2023-04-03T00:47:39;101123.61;;;-2.04;80.02
75852;BME280;64500;52.632;20.656;2023-04-03T00:50:08;101128.37;;;-2.11;79.80
75852;BME280;64500;52.632;20.656;2023-04-03T00:52:36;101128.27;;;-2.14;80.24
75852;BME280;64500;52.632;20.656;2023-04-03T00:55:06;101125.64;;;-2.14;79.60
75852;BME280;64500;52.632;20.656;2023-04-03T00:57:34;101130.75;;;-2.12;79.76
75852;BME280;64500;52.632;20.656;2023-04-03T01:00:07;101135.31;;;-2.15;79.45
75852;BME280;64500;52.632;20.656;2023-04-03T01:02:36;101134.39;;;-2.21;79.77
75852;BME280;64500;52.632;20.656;2023-04-03T01:05:04;101148.53;;;-2.27;79.64
75852;BME280;64500;52.632;20.656;2023-04-03T01:07:31;101144.95;;;-2.25;79.72
75852;BME280;64500;52.632;20.656;2023-04-03T01:10:09;101146.66;;;-2.26;79.55
75852;BME280;64500;52.632;20.656;2023-04-03T01:12:38;101145.52;;;-2.29;79.55
75852;BME280;64500;52.632;20.656;2023-04-03T01:15:18;101153.13;;;-2.33;79.77
75852;BME280;64500;52.632;20.656;2023-04-03T01:17:48;101147.95;;;-2.37;79.51
75852;BME280;64500;52.632;20.656;2023-04-03T01:20:36;101153.30;;;-2.37;79.41
75852;BME280;64500;52.632;20.656;2023-04-03T01:25:55;101160.20;;;-2.42;79.43
75852;BME280;64500;52.632;20.656;2023-04-03T01:33:47;101167.55;;;-2.54;79.53
75852;BME280;64500;52.632;20.656;2023-04-03T01:36:20;101164.62;;;-2.57;79.78
75852;BME280;64500;52.632;20.656;2023-04-03T01:38:48;101172.76;;;-2.61;79.70
75852;BME280;64500;52.632;20.656;2023-04-03T01:41:15;101167.75;;;-2.65;79.52
75852;BME280;64500;52.632;20.656;2023-04-03T01:43:42;101170.14;;;-2.66;79.49
75852;BME280;64500;52.632;20.656;2023-04-03T01:46:10;101171.77;;;-2.64;79.55
75852;BME280;64500;52.632;20.656;2023-04-03T01:48:36;101173.33;;;-2.64;79.23
75852;BME280;64500;52.632;20.656;2023-04-03T01:51:03;101172.27;;;-2.64;79.34
75852;BME280;64500;52.632;20.656;2023-04-03T01:53:30;101178.44;;;-2.66;79.47
75852;BME280;64500;52.632;20.656;2023-04-03T01:55:57;101177.45;;;-2.69;79.31
75852;BME280;64500;52.632;20.656;2023-04-03T01:58:24;101183.00;;;-2.73;79.32
75852;BME280;64500;52.632;20.656;2023-04-03T02:00:51;101183.10;;;-2.74;79.43
75852;BME280;64500;52.632;20.656;2023-04-03T02:03:19;101181.88;;;-2.74;79.37
75852;BME280;64500;52.632;20.656;2023-04-03T02:05:46;101178.70;;;-2.76;79.35
75852;BME280;64500;52.632;20.656;2023-04-03T02:08:13;101184.89;;;-2.77;79.30
75852;BME280;64500;52.632;20.656;2023-04-03T02:10:40;101190.25;;;-2.81;79.32
75852;BME280;64500;52.632;20.656;2023-04-03T02:13:06;101191.50;;;-2.84;79.34
75852;BME280;64500;52.632;20.656;2023-04-03T02:15:33;101190.86;;;-2.87;79.48
75852;BME280;64500;52.632;20.656;2023-04-03T02:18:00;101194.23;;;-2.90;79.45
75852;BME280;64500;52.632;20.656;2023-04-03T02:20:27;101192.92;;;-2.92;79.46
75852;BME280;64500;52.632;20.656;2023-04-03T02:22:53;101195.09;;;-2.94;79.65
75852;BME280;64500;52.632;20.656;2023-04-03T02:25:20;101195.05;;;-2.95;79.66
75852;BME280;64500;52.632;20.656;2023-04-03T02:27:47;101196.05;;;-2.99;79.48
75852;BME280;64500;52.632;20.656;2023-04-03T02:30:14;101193.94;;;-3.00;79.65
75852;BME280;64500;52.632;20.656;2023-04-03T02:32:42;101192.38;;;-3.04;79.65
75852;BME280;64500;52.632;20.656;2023-04-03T02:35:10;101191.67;;;-3.09;79.70
75852;BME280;64500;52.632;20.656;2023-04-03T02:37:38;101194.69;;;-3.10;79.67
75852;BME280;64500;52.632;20.656;2023-04-03T02:40:05;101199.65;;;-3.08;79.76
75852;BME280;64500;52.632;20.656;2023-04-03T02:42:32;101196.95;;;-3.10;79.92
75852;BME280;64500;52.632;20.656;2023-04-03T02:44:59;101205.65;;;-3.13;79.96
75852;BME280;64500;52.632;20.656;2023-04-03T02:47:27;101202.02;;;-3.13;79.93
75852;BME280;64500;52.632;20.656;2023-04-03T02:49:54;101201.30;;;-3.14;79.78
75852;BME280;64500;52.632;20.656;2023-04-03T02:52:21;101205.84;;;-3.17;79.93
75852;BME280;64500;52.632;20.656;2023-04-03T02:54:48;101203.93;;;-3.24;79.99
75852;BME280;64500;52.632;20.656;2023-04-03T02:57:15;101211.16;;;-3.29;80.03
75852;BME280;64500;52.632;20.656;2023-04-03T02:59:41;101213.47;;;-3.27;80.17
75852;BME280;64500;52.632;20.656;2023-04-03T03:02:08;101216.84;;;-3.29;80.18
75852;BME280;64500;52.632;20.656;2023-04-03T03:04:36;101218.93;;;-3.29;80.35
75852;BME280;64500;52.632;20.656;2023-04-03T03:07:03;101222.95;;;-3.28;80.30
75852;BME280;64500;52.632;20.656;2023-04-03T03:09:30;101218.44;;;-3.29;80.46
75852;BME280;64500;52.632;20.656;2023-04-03T03:11:57;101218.09;;;-3.32;80.39
75852;BME280;64500;52.632;20.656;2023-04-03T03:14:24;101226.84;;;-3.34;80.28
75852;BME280;64500;52.632;20.656;2023-04-03T03:16:51;101226.20;;;-3.33;80.51
75852;BME280;64500;52.632;20.656;2023-04-03T03:19:18;101227.67;;;-3.35;80.47
75852;BME280;64500;52.632;20.656;2023-04-03T03:21:45;101222.08;;;-3.37;80.60
75852;BME280;64500;52.632;20.656;2023-04-03T03:24:14;101223.53;;;-3.39;80.39
75852;BME280;64500;52.632;20.656;2023-04-03T03:26:43;101221.68;;;-3.37;80.64
75852;BME280;64500;52.632;20.656;2023-04-03T03:29:10;101228.88;;;-3.39;80.66
75852;BME280;64500;52.632;20.656;2023-04-03T03:31:37;101225.69;;;-3.41;80.68
75852;BME280;64500;52.632;20.656;2023-04-03T03:34:04;101227.83;;;-3.39;80.80
75852;BME280;64500;52.632;20.656;2023-04-03T03:36:30;101222.35;;;-3.42;80.79
75852;BME280;64500;52.632;20.656;2023-04-03T03:38:58;101224.29;;;-3.45;80.79
75852;BME280;64500;52.632;20.656;2023-04-03T03:41:25;101225.34;;;-3.44;80.76
75852;BME280;64500;52.632;20.656;2023-04-03T03:43:52;101225.61;;;-3.46;80.90
75852;BME280;64500;52.632;20.656;2023-04-03T03:46:18;101222.41;;;-3.48;80.92
75852;BME280;64500;52.632;20.656;2023-04-03T03:48:45;101221.00;;;-3.52;81.06
75852;BME280;64500;52.632;20.656;2023-04-03T03:51:12;101225.14;;;-3.53;80.87
75852;BME280;64500;52.632;20.656;2023-04-03T03:53:39;101226.20;;;-3.52;81.05
75852;BME280;64500;52.632;20.656;2023-04-03T03:56:06;101233.69;;;-3.54;81.05
75852;BME280;64500;52.632;20.656;2023-04-03T03:58:33;101233.48;;;-3.59;81.04
75852;BME280;64500;52.632;20.656;2023-04-03T04:01:04;101232.87;;;-3.57;81.08
75852;BME280;64500;52.632;20.656;2023-04-03T04:03:34;101232.23;;;-3.56;81.11
75852;BME280;64500;52.632;20.656;2023-04-03T04:06:01;101231.20;;;-3.60;81.05
75852;BME280;64500;52.632;20.656;2023-04-03T04:08:28;101232.09;;;-3.63;81.21
75852;BME280;64500;52.632;20.656;2023-04-03T04:10:55;101234.02;;;-3.66;81.29
75852;BME280;64500;52.632;20.656;2023-04-03T04:13:22;101236.33;;;-3.64;81.30
75852;BME280;64500;52.632;20.656;2023-04-03T04:15:49;101238.77;;;-3.64;81.38
75852;BME280;64500;52.632;20.656;2023-04-03T04:18:18;101240.38;;;-3.67;81.13
75852;BME280;64500;52.632;20.656;2023-04-03T04:20:46;101242.67;;;-3.69;81.42
75852;BME280;64500;52.632;20.656;2023-04-03T04:23:13;101241.21;;;-3.71;81.24
75852;BME280;64500;52.632;20.656;2023-04-03T04:25:40;101247.36;;;-3.72;81.42
75852;BME280;64500;52.632;20.656;2023-04-03T04:28:07;101250.55;;;-3.71;81.45
75852;BME280;64500;52.632;20.656;2023-04-03T04:30:33;101255.40;;;-3.70;81.35
75852;BME280;64500;52.632;20.656;2023-04-03T04:33:00;101257.89;;;-3.65;81.67
75852;BME280;64500;52.632;20.656;2023-04-03T04:35:28;101260.23;;;-3.63;81.55
75852;BME280;64500;52.632;20.656;2023-04-03T04:37:55;101257.08;;;-3.64;81.45
75852;BME280;64500;52.632;20.656;2023-04-03T04:40:22;101262.30;;;-3.64;81.49
75852;BME280;64500;52.632;20.656;2023-04-03T04:42:49;101263.09;;;-3.58;81.49
75852;BME280;64500;52.632;20.656;2023-04-03T04:45:16;101264.58;;;-3.52;81.48
75852;BME280;64500;52.632;20.656;2023-04-03T04:47:43;101264.16;;;-3.38;81.39
75852;BME280;64500;52.632;20.656;2023-04-03T04:50:10;101264.13;;;-3.28;81.21
75852;BME280;64500;52.632;20.656;2023-04-03T04:52:38;101265.27;;;-3.25;80.98
75852;BME280;64500;52.632;20.656;2023-04-03T04:55:06;101267.14;;;-3.22;80.93
75852;BME280;64500;52.632;20.656;2023-04-03T04:57:33;101270.60;;;-3.15;80.64
75852;BME280;64500;52.632;20.656;2023-04-03T05:00:01;101277.45;;;-3.08;80.76
75852;BME280;64500;52.632;20.656;2023-04-03T05:02:28;101281.11;;;-3.08;80.70
75852;BME280;64500;52.632;20.656;2023-04-03T05:04:55;101281.98;;;-3.00;80.63
75852;BME280;64500;52.632;20.656;2023-04-03T05:07:22;101280.29;;;-2.76;80.31
75852;BME280;64500;52.632;20.656;2023-04-03T05:09:49;101288.23;;;-2.53;80.15
75852;BME280;64500;52.632;20.656;2023-04-03T05:12:16;101289.79;;;-2.36;79.86
75852;BME280;64500;52.632;20.656;2023-04-03T05:14:43;101290.49;;;-2.19;79.66
75852;BME280;64500;52.632;20.656;2023-04-03T05:17:10;101290.77;;;-2.05;79.50
75852;BME280;64500;52.632;20.656;2023-04-03T05:19:37;101289.95;;;-2.04;78.84
75852;BME280;64500;52.632;20.656;2023-04-03T05:22:04;101286.95;;;-2.05;78.61
75852;BME280;64500;52.632;20.656;2023-04-03T05:24:31;101290.96;;;-2.04;78.53
75852;BME280;64500;52.632;20.656;2023-04-03T05:26:58;101289.38;;;-2.09;78.21
75852;BME280;64500;52.632;20.656;2023-04-03T05:29:24;101299.16;;;-2.15;78.11
75852;BME280;64500;52.632;20.656;2023-04-03T05:31:51;101306.26;;;-2.19;77.69
75852;BME280;64500;52.632;20.656;2023-04-03T05:34:18;101298.05;;;-2.21;77.45
75852;BME280;64500;52.632;20.656;2023-04-03T05:36:45;101300.92;;;-2.23;77.28
75852;BME280;64500;52.632;20.656;2023-04-03T05:39:12;101302.66;;;-2.23;77.70
75852;BME280;64500;52.632;20.656;2023-04-03T05:41:39;101307.83;;;-2.23;77.12
75852;BME280;64500;52.632;20.656;2023-04-03T05:44:06;101312.33;;;-2.23;77.26
75852;BME280;64500;52.632;20.656;2023-04-03T05:46:33;101313.15;;;-2.25;77.54
75852;BME280;64500;52.632;20.656;2023-04-03T05:48:59;101310.92;;;-2.24;77.42
75852;BME280;64500;52.632;20.656;2023-04-03T05:51:34;101310.40;;;-2.24;76.88
75852;BME280;64500;52.632;20.656;2023-04-03T05:54:23;101316.29;;;-2.24;77.30
75852;BME280;64500;52.632;20.656;2023-04-03T05:56:51;101313.16;;;-2.24;76.86
75852;BME280;64500;52.632;20.656;2023-04-03T05:59:19;101315.79;;;-2.24;76.78
75852;BME280;64500;52.632;20.656;2023-04-03T06:01:46;101319.84;;;-2.22;76.79
75852;BME280;64500;52.632;20.656;2023-04-03T06:04:14;101319.02;;;-2.21;76.55
75852;BME280;64500;52.632;20.656;2023-04-03T06:09:15;101325.70;;;-2.15;76.17
75852;BME280;64500;52.632;20.656;2023-04-03T06:11:44;101324.57;;;-2.12;76.30
75852;BME280;64500;52.632;20.656;2023-04-03T06:14:11;101330.17;;;-2.11;75.75
75852;BME280;64500;52.632;20.656;2023-04-03T06:16:39;101326.68;;;-2.08;75.94
75852;BME280;64500;52.632;20.656;2023-04-03T06:19:08;101326.23;;;-2.06;75.71
75852;BME280;64500;52.632;20.656;2023-04-03T06:21:36;101326.84;;;-2.04;75.75
75852;BME280;64500;52.632;20.656;2023-04-03T06:24:04;101333.41;;;-1.99;75.74
75852;BME280;64500;52.632;20.656;2023-04-03T06:26:31;101334.83;;;-1.95;75.28
75852;BME280;64500;52.632;20.656;2023-04-03T06:28:59;101337.19;;;-1.92;75.14
75852;BME280;64500;52.632;20.656;2023-04-03T06:31:26;101338.61;;;-1.87;75.15
75852;BME280;64500;52.632;20.656;2023-04-03T06:33:53;101344.02;;;-1.83;75.22
75852;BME280;64500;52.632;20.656;2023-04-03T06:36:20;101344.98;;;-1.80;74.62
75852;BME280;64500;52.632;20.656;2023-04-03T06:38:48;101347.71;;;-1.77;74.04
75852;BME280;64500;52.632;20.656;2023-04-03T06:41:15;101351.95;;;-1.75;73.80
75852;BME280;64500;52.632;20.656;2023-04-03T06:43:44;101349.14;;;-1.72;74.54
75852;BME280;64500;52.632;20.656;2023-04-03T06:46:16;101363.88;;;-1.67;73.79
75852;BME280;64500;52.632;20.656;2023-04-03T06:48:44;101357.92;;;-1.65;73.49
75852;BME280;64500;52.632;20.656;2023-04-03T06:51:25;101369.90;;;-1.60;73.62
75852;BME280;64500;52.632;20.656;2023-04-03T06:53:54;101370.77;;;-1.56;73.53
75852;BME280;64500;52.632;20.656;2023-04-03T06:56:22;101376.38;;;-1.49;72.96
75852;BME280;64500;52.632;20.656;2023-04-03T06:58:49;101371.17;;;-1.45;73.45
75852;BME280;64500;52.632;20.656;2023-04-03T07:01:18;101383.27;;;-1.42;72.90
75852;BME280;64500;52.632;20.656;2023-04-03T07:03:48;101381.10;;;-1.40;72.97
75852;BME280;64500;52.632;20.656;2023-04-03T07:06:17;101375.23;;;-1.35;73.30
75852;BME280;64500;52.632;20.656;2023-04-03T07:08:45;101377.05;;;-1.28;72.95
75852;BME280;64500;52.632;20.656;2023-04-03T07:11:12;101390.66;;;-1.22;72.17
75852;BME280;64500;52.632;20.656;2023-04-03T07:13:39;101382.45;;;-1.19;72.56
75852;BME280;64500;52.632;20.656;2023-04-03T07:16:07;101383.60;;;-1.12;72.66
75852;BME280;64500;52.632;20.656;2023-04-03T07:18:35;101384.63;;;-1.03;72.66
75852;BME280;64500;52.632;20.656;2023-04-03T07:21:03;101393.02;;;-0.97;71.91
75852;BME280;64500;52.632;20.656;2023-04-03T07:23:31;101384.45;;;-0.95;71.20
75852;BME280;64500;52.632;20.656;2023-04-03T07:25:58;101385.09;;;-0.92;71.63
75852;BME280;64500;52.632;20.656;2023-04-03T07:28:25;101388.36;;;-0.83;72.11
75852;BME280;64500;52.632;20.656;2023-04-03T07:31:00;101392.39;;;-0.78;71.28
75852;BME280;64500;52.632;20.656;2023-04-03T07:33:28;101396.25;;;-0.72;71.40
75852;BME280;64500;52.632;20.656;2023-04-03T07:35:55;101389.00;;;-0.66;71.44
75852;BME280;64500;52.632;20.656;2023-04-03T07:38:22;101392.42;;;-0.58;71.69
75852;BME280;64500;52.632;20.656;2023-04-03T07:40:50;101387.75;;;-0.53;71.22
75852;BME280;64500;52.632;20.656;2023-04-03T07:43:20;101396.56;;;-0.49;71.36
75852;BME280;64500;52.632;20.656;2023-04-03T07:45:49;101398.37;;;-0.42;71.14
75852;BME280;64500;52.632;20.656;2023-04-03T07:48:24;101393.86;;;-0.38;71.19
75852;BME280;64500;52.632;20.656;2023-04-03T07:50:52;101393.25;;;-0.31;70.83
75852;BME280;64500;52.632;20.656;2023-04-03T07:53:19;101391.85;;;-0.26;70.05
75852;BME280;64500;52.632;20.656;2023-04-03T07:55:47;101400.47;;;-0.24;69.91
75852;BME280;64500;52.632;20.656;2023-04-03T07:58:16;101403.56;;;-0.19;69.24
75852;BME280;64500;52.632;20.656;2023-04-03T08:00:44;101405.27;;;-0.20;69.12
75852;BME280;64500;52.632;20.656;2023-04-03T08:03:12;101391.98;;;-0.17;68.97
75852;BME280;64500;52.632;20.656;2023-04-03T08:05:44;101400.89;;;-0.11;69.10
75852;BME280;64500;52.632;20.656;2023-04-03T08:08:13;101397.77;;;-0.06;68.97
75852;BME280;64500;52.632;20.656;2023-04-03T08:10:40;101397.44;;;-0.01;69.02
75852;BME280;64500;52.632;20.656;2023-04-03T08:13:08;101397.36;;;0.07;69.31
75852;BME280;64500;52.632;20.656;2023-04-03T08:15:36;101399.44;;;0.16;69.83
75852;BME280;64500;52.632;20.656;2023-04-03T08:18:04;101402.10;;;0.29;69.33
75852;BME280;64500;52.632;20.656;2023-04-03T08:20:31;101402.66;;;0.40;68.99
75852;BME280;64500;52.632;20.656;2023-04-03T08:22:58;101407.80;;;0.48;68.48
75852;BME280;64500;52.632;20.656;2023-04-03T08:25:25;101408.67;;;0.54;67.13
75852;BME280;64500;52.632;20.656;2023-04-03T08:27:54;101407.13;;;0.54;66.92
75852;BME280;64500;52.632;20.656;2023-04-03T08:30:21;101409.21;;;0.54;67.75
75852;BME280;64500;52.632;20.656;2023-04-03T08:32:48;101414.15;;;0.61;66.88
75852;BME280;64500;52.632;20.656;2023-04-03T08:35:15;101410.98;;;0.66;66.66
75852;BME280;64500;52.632;20.656;2023-04-03T08:37:42;101413.90;;;0.70;65.34
75852;BME280;64500;52.632;20.656;2023-04-03T08:40:14;101415.98;;;0.75;65.40
75852;BME280;64500;52.632;20.656;2023-04-03T08:43:03;101412.52;;;0.81;64.87
75852;BME280;64500;52.632;20.656;2023-04-03T08:45:49;101419.27;;;0.91;65.45
75852;BME280;64500;52.632;20.656;2023-04-03T08:51:18;101416.16;;;1.08;64.46
75852;BME280;64500;52.632;20.656;2023-04-03T08:54:01;101419.89;;;1.17;64.60
75852;BME280;64500;52.632;20.656;2023-04-03T08:56:33;101416.69;;;1.26;64.06
75852;BME280;64500;52.632;20.656;2023-04-03T08:59:04;101438.77;;;1.25;61.37
75852;BME280;64500;52.632;20.656;2023-04-03T09:01:36;101428.91;;;1.22;62.65
75852;BME280;64500;52.632;20.656;2023-04-03T09:04:11;101424.41;;;1.23;63.18
75852;BME280;64500;52.632;20.656;2023-04-03T09:06:38;101432.00;;;1.25;62.64
75852;BME280;64500;52.632;20.656;2023-04-03T09:09:30;101425.98;;;1.28;62.24
75852;BME280;64500;52.632;20.656;2023-04-03T09:15:01;101417.84;;;1.41;61.90
75852;BME280;64500;52.632;20.656;2023-04-03T09:17:39;101425.13;;;1.51;61.19
75852;BME280;64500;52.632;20.656;2023-04-03T09:22:42;101416.42;;;1.76;59.57
75852;BME280;64500;52.632;20.656;2023-04-03T09:27:39;101413.20;;;1.92;61.53
75852;BME280;64500;52.632;20.656;2023-04-03T09:30:13;101418.91;;;2.10;59.23
75852;BME280;64500;52.632;20.656;2023-04-03T09:32:43;101415.44;;;2.17;58.37
75852;BME280;64500;52.632;20.656;2023-04-03T09:35:27;101413.47;;;2.28;57.97
75852;BME280;64500;52.632;20.656;2023-04-03T09:38:00;101425.17;;;2.35;56.76
75852;BME280;64500;52.632;20.656;2023-04-03T09:42:58;101410.61;;;2.54;57.23
75852;BME280;64500;52.632;20.656;2023-04-03T09:45:28;101421.02;;;2.65;56.87
75852;BME280;64500;52.632;20.656;2023-04-03T09:53:30;101436.92;;;3.25;56.20
75852;BME280;64500;52.632;20.656;2023-04-03T09:55:58;101424.13;;;3.39;54.35
75852;BME280;64500;52.632;20.656;2023-04-03T09:58:26;101421.19;;;3.24;55.11
75852;BME280;64500;52.632;20.656;2023-04-03T10:00:59;101424.55;;;3.03;54.38
75852;BME280;64500;52.632;20.656;2023-04-03T10:03:33;101412.84;;;2.95;55.63
75852;BME280;64500;52.632;20.656;2023-04-03T10:06:03;101416.11;;;3.24;56.25
75852;BME280;64500;52.632;20.656;2023-04-03T10:08:32;101412.55;;;3.29;52.63
75852;BME280;64500;52.632;20.656;2023-04-03T10:11:15;101421.56;;;3.09;53.42
75852;BME280;64500;52.632;20.656;2023-04-03T10:13:59;101416.29;;;3.16;54.17
75852;BME280;64500;52.632;20.656;2023-04-03T10:16:32;101411.09;;;3.50;55.21
75852;BME280;64500;52.632;20.656;2023-04-03T10:22:06;101397.90;;;3.98;53.66
75852;BME280;64500;52.632;20.656;2023-04-03T10:28:20;101402.90;;;4.34;52.77
75852;BME280;64500;52.632;20.656;2023-04-03T10:39:54;101406.02;;;4.03;49.71
75852;BME280;64500;52.632;20.656;2023-04-03T10:45:31;101394.63;;;3.75;51.45
75852;BME280;64500;52.632;20.656;2023-04-03T10:59:21;101391.80;;;4.09;49.13
75852;BME280;64500;52.632;20.656;2023-04-03T11:04:44;101390.14;;;3.68;48.68
75852;BME280;64500;52.632;20.656;2023-04-03T11:07:23;101387.85;;;3.68;48.24
75852;BME280;64500;52.632;20.656;2023-04-03T11:09:58;101381.42;;;3.79;50.38
75852;BME280;64500;52.632;20.656;2023-04-03T11:12:43;101373.31;;;4.03;50.84
75852;BME280;64500;52.632;20.656;2023-04-03T11:15:17;101369.36;;;4.16;48.50
75852;BME280;64500;52.632;20.656;2023-04-03T11:17:55;101369.73;;;4.08;49.07
75852;BME280;64500;52.632;20.656;2023-04-03T11:20:30;101367.48;;;4.29;50.03
75852;BME280;64500;52.632;20.656;2023-04-03T11:23:06;101371.56;;;4.43;50.45
75852;BME280;64500;52.632;20.656;2023-04-03T11:25:38;101379.30;;;4.46;50.09
75852;BME280;64500;52.632;20.656;2023-04-03T11:28:13;101368.41;;;4.32;48.21
75852;BME280;64500;52.632;20.656;2023-04-03T11:36:55;101363.20;;;4.45;48.85
75852;BME280;64500;52.632;20.656;2023-04-03T11:39:29;101367.21;;;4.79;48.56
75852;BME280;64500;52.632;20.656;2023-04-03T11:42:24;101359.42;;;4.84;47.70
75852;BME280;64500;52.632;20.656;2023-04-03T11:45:16;101381.33;;;4.73;46.48
75852;BME280;64500;52.632;20.656;2023-04-03T11:47:54;101372.19;;;4.71;46.70
75852;BME280;64500;52.632;20.656;2023-04-03T11:58:17;101345.32;;;5.15;44.64
75852;BME280;64500;52.632;20.656;2023-04-03T12:16:22;101333.20;;;5.12;47.13
75852;BME280;64500;52.632;20.656;2023-04-03T12:29:17;101337.14;;;5.20;44.93
75852;BME280;64500;52.632;20.656;2023-04-03T12:37:29;101335.27;;;5.69;44.32
75852;BME280;64500;52.632;20.656;2023-04-03T12:40:21;101347.98;;;5.60;42.69
75852;BME280;64500;52.632;20.656;2023-04-03T12:48:31;101335.20;;;5.78;45.23
75852;BME280;64500;52.632;20.656;2023-04-03T12:50:58;101334.61;;;6.04;44.99
75852;BME280;64500;52.632;20.656;2023-04-03T12:53:28;101337.77;;;6.04;43.09
75852;BME280;64500;52.632;20.656;2023-04-03T12:56:24;101341.38;;;5.81;43.02
75852;BME280;64500;52.632;20.656;2023-04-03T12:58:53;101341.31;;;5.60;44.07
75852;BME280;64500;52.632;20.656;2023-04-03T13:01:26;101329.12;;;5.83;44.06
75852;BME280;64500;52.632;20.656;2023-04-03T13:03:55;101327.36;;;6.16;44.28
75852;BME280;64500;52.632;20.656;2023-04-03T13:06:26;101333.61;;;6.30;42.59
75852;BME280;64500;52.632;20.656;2023-04-03T13:08:56;101331.48;;;6.25;42.41
75852;BME280;64500;52.632;20.656;2023-04-03T13:11:36;101335.26;;;6.16;41.52
75852;BME280;64500;52.632;20.656;2023-04-03T13:14:14;101322.50;;;6.21;42.10
75852;BME280;64500;52.632;20.656;2023-04-03T13:16:41;101326.36;;;6.21;41.66
75852;BME280;64500;52.632;20.656;2023-04-03T13:19:17;101326.93;;;6.08;42.04
75852;BME280;64500;52.632;20.656;2023-04-03T13:21:44;101336.28;;;6.12;41.63
75852;BME280;64500;52.632;20.656;2023-04-03T13:24:12;101333.94;;;6.26;41.14
75852;BME280;64500;52.632;20.656;2023-04-03T13:26:39;101331.72;;;6.34;41.72
75852;BME280;64500;52.632;20.656;2023-04-03T13:29:26;101327.16;;;6.33;41.11
75852;BME280;64500;52.632;20.656;2023-04-03T13:31:55;101332.66;;;6.21;40.92
75852;BME280;64500;52.632;20.656;2023-04-03T13:34:25;101328.47;;;6.04;41.04
75852;BME280;64500;52.632;20.656;2023-04-03T13:36:57;101328.08;;;5.99;41.73
75852;BME280;64500;52.632;20.656;2023-04-03T13:39:30;101333.86;;;5.99;40.60
75852;BME280;64500;52.632;20.656;2023-04-03T13:42:01;101339.62;;;5.96;40.19
75852;BME280;64500;52.632;20.656;2023-04-03T13:44:32;101333.31;;;5.95;40.26
75852;BME280;64500;52.632;20.656;2023-04-03T13:47:22;101331.15;;;6.09;41.82
75852;BME280;64500;52.632;20.656;2023-04-03T13:50:00;101329.21;;;6.28;41.87
75852;BME280;64500;52.632;20.656;2023-04-03T13:52:33;101329.13;;;6.38;41.39
75852;BME280;64500;52.632;20.656;2023-04-03T13:55:30;101331.77;;;6.38;40.88
75852;BME280;64500;52.632;20.656;2023-04-03T14:03:56;101327.83;;;6.09;40.79
75852;BME280;64500;52.632;20.656;2023-04-03T14:06:23;101329.04;;;6.08;41.07
75852;BME280;64500;52.632;20.656;2023-04-03T14:08:51;101330.02;;;6.01;40.54
75852;BME280;64500;52.632;20.656;2023-04-03T14:11:27;101333.45;;;5.79;40.20
75852;BME280;64500;52.632;20.656;2023-04-03T14:14:02;101327.77;;;5.57;41.04
75852;BME280;64500;52.632;20.656;2023-04-03T14:16:33;101318.77;;;5.68;42.61
75852;BME280;64500;52.632;20.656;2023-04-03T14:19:03;101321.58;;;5.99;41.24
75852;BME280;64500;52.632;20.656;2023-04-03T14:21:30;101317.62;;;6.07;41.45
75852;BME280;64500;52.632;20.656;2023-04-03T14:23:57;101321.63;;;6.05;42.03
75852;BME280;64500;52.632;20.656;2023-04-03T14:26:24;101325.37;;;5.93;41.09
75852;BME280;64500;52.632;20.656;2023-04-03T14:28:54;101322.98;;;5.86;41.90
75852;BME280;64500;52.632;20.656;2023-04-03T14:31:22;101321.45;;;5.89;41.88
75852;BME280;64500;52.632;20.656;2023-04-03T14:33:49;101323.61;;;5.92;42.33
75852;BME280;64500;52.632;20.656;2023-04-03T14:36:20;101322.86;;;5.90;41.89
75852;BME280;64500;52.632;20.656;2023-04-03T14:38:49;101327.67;;;5.80;41.67
75852;BME280;64500;52.632;20.656;2023-04-03T14:41:19;101321.42;;;5.70;41.93
75852;BME280;64500;52.632;20.656;2023-04-03T14:43:46;101313.98;;;5.62;42.94
75852;BME280;64500;52.632;20.656;2023-04-03T14:46:17;101321.10;;;5.55;42.23
75852;BME280;64500;52.632;20.656;2023-04-03T14:48:45;101326.10;;;5.48;42.37
75852;BME280;64500;52.632;20.656;2023-04-03T14:51:14;101325.45;;;5.38;42.25
75852;BME280;64500;52.632;20.656;2023-04-03T14:53:42;101323.83;;;5.35;42.60
75852;BME280;64500;52.632;20.656;2023-04-03T14:56:20;101316.94;;;5.29;42.20
75852;BME280;64500;52.632;20.656;2023-04-03T14:58:56;101321.88;;;5.19;42.33